createdAt,value
2022-09-24T00:02:47.113Z,74.79
2022-09-24T00:07:48.767Z,74.01
2022-09-24T00:12:52.081Z,74.15
2022-09-24T00:17:53.597Z,73.89
2022-09-24T00:22:55.119Z,74.83
2022-09-24T00:27:56.636Z,75.03
2022-09-24T00:32:58.156Z,74.73
2022-09-24T00:37:59.792Z,75.88
2022-09-24T00:43:01.666Z,74.38
2022-09-24T00:48:03.230Z,76.04
2022-09-24T00:53:10.981Z,77.36
2022-09-24T00:58:13.315Z,77.42
2022-09-24T01:03:18.909Z,77.77
2022-09-24T01:08:21.139Z,77.77
2022-09-24T01:13:49.856Z,77.62
2022-09-24T01:19:09.269Z,77.78
2022-09-24T01:24:49.332Z,77.47
2022-09-24T01:30:08.284Z,77.76
2022-09-24T01:35:16.396Z,77.89
2022-09-24T01:40:19.066Z,77.08
2022-09-24T01:45:21.383Z,76.51
2022-09-24T01:50:24.694Z,76.93
2022-09-24T01:55:28.973Z,77.28
2022-09-24T02:00:30.582Z,77.49
2022-09-24T02:05:39.629Z,78.70
2022-09-24T02:10:48.195Z,80.19
2022-09-24T02:15:51.084Z,79.98
2022-09-24T02:20:53.635Z,80.29
2022-09-24T02:26:02.423Z,81.49
2022-09-24T02:31:14.005Z,81.16
2022-09-24T02:36:24.890Z,80.20
2022-09-24T02:41:27.170Z,80.34
2022-09-24T02:46:28.935Z,79.92
2022-09-24T02:51:30.537Z,79.87
2022-09-24T02:56:32.198Z,79.07
2022-09-24T03:01:34.460Z,78.92
2022-09-24T03:06:36.864Z,80.01
2022-09-24T03:11:38.589Z,79.25
2022-09-24T03:16:40.119Z,80.17
2022-09-24T03:21:41.679Z,79.90
2022-09-24T03:26:43.182Z,79.72
2022-09-24T03:31:44.789Z,79.30
2022-09-24T03:36:47.453Z,80.12
2022-09-24T03:41:48.990Z,79.44
2022-09-24T03:46:50.563Z,79.92
2022-09-24T03:51:52.135Z,79.40
2022-09-24T03:56:53.649Z,79.54
2022-09-24T04:01:55.333Z,79.83
2022-09-24T04:06:57.172Z,80.97
2022-09-24T04:11:59.153Z,80.91
2022-09-24T04:17:00.773Z,80.24
2022-09-24T04:22:02.374Z,79.95
2022-09-24T04:27:04.094Z,80.64
2022-09-24T04:32:05.615Z,80.59
2022-09-24T04:37:07.185Z,79.69
2022-09-24T04:42:08.719Z,78.55
2022-09-24T04:47:11.472Z,78.57
2022-09-24T04:52:16.410Z,78.09
2022-09-24T04:57:18.002Z,79.32
2022-09-24T05:02:19.677Z,80.19
2022-09-24T05:07:21.274Z,79.88
2022-09-24T05:12:22.814Z,79.34
2022-09-24T05:17:24.421Z,77.98
2022-09-24T05:22:30.162Z,77.49
2022-09-24T05:27:31.754Z,78.61
2022-09-24T05:32:34.033Z,76.78
2022-09-24T05:37:36.652Z,76.52
2022-09-24T05:42:38.185Z,75.59
2022-09-24T05:47:39.707Z,76.28
2022-09-24T05:52:41.318Z,77.04
2022-09-24T05:57:42.887Z,76.91
2022-09-24T06:02:44.462Z,76.12
2022-09-24T06:07:46.084Z,74.92
2022-09-24T06:12:47.828Z,74.22
2022-09-24T06:17:49.354Z,75.19
2022-09-24T06:22:50.921Z,76.09
2022-09-24T06:28:00.495Z,76.56
2022-09-24T06:33:07.217Z,75.31
2022-09-24T06:38:11.009Z,75.66
2022-09-24T06:43:13.541Z,75.09
2022-09-24T06:48:15.160Z,74.82
2022-09-24T06:53:16.734Z,73.41
2022-09-24T06:58:22.406Z,72.90
2022-09-24T07:03:24.020Z,72.69
2022-09-24T07:08:25.644Z,72.83
2022-09-24T07:13:27.250Z,72.45
2022-09-24T07:18:28.899Z,71.50
2022-09-24T07:23:30.415Z,71.24
2022-09-24T07:28:32.115Z,71.31
2022-09-24T07:33:33.721Z,71.07
2022-09-24T07:38:36.425Z,70.97
2022-09-24T07:43:38.582Z,70.80
2022-09-24T07:48:40.133Z,70.06
2022-09-24T07:53:41.647Z,69.87
2022-09-24T07:58:43.445Z,69.43
2022-09-24T08:03:46.410Z,69.01
2022-09-24T08:08:52.999Z,69.82
2022-09-24T08:13:55.964Z,69.27
2022-09-24T08:18:57.455Z,68.85
2022-09-24T08:23:58.956Z,68.70
2022-09-24T08:29:00.453Z,68.57
2022-09-24T08:34:01.990Z,68.57
2022-09-24T08:39:03.606Z,68.17
2022-09-24T08:44:12.289Z,68.02
2022-09-24T08:49:18.523Z,68.47
2022-09-24T08:54:20.882Z,68.16
2022-09-24T08:59:33.095Z,68.03
2022-09-24T09:04:57.909Z,68.49
2022-09-24T09:10:05.888Z,68.19
2022-09-24T09:15:19.644Z,68.01
2022-09-24T09:20:26.442Z,67.67
2022-09-24T09:25:31.561Z,66.88
2022-09-24T09:30:53.707Z,66.91
2022-09-24T09:36:12.327Z,66.84
2022-09-24T09:41:54.336Z,67.00
2022-09-24T09:47:25.264Z,67.24
2022-09-24T09:52:28.689Z,66.63
2022-09-24T09:57:30.316Z,66.90
2022-09-24T10:02:35.339Z,66.78
2022-09-24T10:07:44.956Z,65.66
2022-09-24T10:12:46.749Z,65.56
2022-09-24T10:17:50.523Z,65.32
2022-09-24T10:22:54.997Z,64.78
2022-09-24T10:28:20.197Z,64.92
2022-09-24T10:33:21.877Z,63.31
2022-09-24T10:38:24.852Z,63.64
2022-09-24T10:43:26.387Z,63.50
2022-09-24T10:48:35.961Z,62.45
2022-09-24T10:54:18.889Z,61.02
2022-09-24T10:59:42.415Z,59.96
2022-09-24T11:05:00.785Z,60.16
2022-09-24T11:10:20.336Z,60.76
2022-09-24T11:15:53.390Z,60.53
2022-09-24T11:21:28.598Z,59.88
2022-09-24T11:26:54.219Z,58.73
2022-09-24T11:32:06.846Z,59.28
2022-09-24T11:37:39.865Z,58.31
2022-09-24T11:43:18.429Z,58.75
2022-09-24T11:48:19.843Z,58.91
2022-09-24T11:53:27.313Z,63.21
2022-09-24T11:58:32.154Z,60.09
2022-09-24T12:03:44.963Z,59.75
2022-09-24T12:08:57.055Z,59.19
2022-09-24T12:14:05.665Z,58.74
2022-09-24T12:19:21.398Z,58.94
2022-09-24T12:24:33.303Z,61.22
2022-09-24T12:30:18.226Z,60.13
2022-09-24T12:35:28.835Z,59.42
2022-09-24T12:40:41.424Z,56.65
2022-09-24T12:45:43.089Z,57.07
2022-09-24T12:50:56.635Z,56.16
2022-09-24T12:56:02.260Z,57.21
2022-09-24T13:01:25.103Z,54.88
2022-09-24T13:06:35.381Z,55.13
2022-09-24T13:11:37.592Z,55.88
2022-09-24T13:16:41.189Z,56.35
2022-09-24T13:21:43.970Z,56.37
2022-09-24T13:26:45.531Z,55.35
2022-09-24T13:31:51.137Z,55.06
2022-09-24T13:37:02.489Z,54.84
2022-09-24T13:42:31.596Z,55.71
2022-09-24T13:47:46.460Z,55.09
2022-09-24T13:53:04.586Z,53.98
2022-09-24T13:58:06.158Z,55.06
2022-09-24T14:03:19.240Z,54.89
2022-09-24T14:08:23.146Z,55.22
2022-09-24T14:13:25.104Z,53.06
2022-09-24T14:18:28.289Z,54.70
2022-09-24T14:23:34.203Z,54.82
2022-09-24T14:28:35.808Z,53.11
2022-09-24T14:33:37.774Z,53.11
2022-09-24T14:38:53.911Z,53.16
2022-09-24T14:44:06.134Z,53.57
2022-09-24T14:49:28.485Z,53.42
2022-09-24T14:54:42.562Z,52.97
2022-09-24T14:59:45.390Z,51.84
2022-09-24T15:04:50.122Z,52.18
2022-09-24T15:09:53.999Z,51.40
2022-09-24T15:15:00.812Z,52.26
2022-09-24T15:20:04.047Z,54.63
2022-09-24T15:25:06.103Z,56.97
2022-09-24T15:30:10.470Z,58.07
2022-09-24T15:35:15.015Z,57.89
2022-09-24T15:40:24.738Z,58.80
2022-09-24T15:45:26.373Z,58.97
2022-09-24T15:50:27.942Z,59.71
2022-09-24T15:55:30.962Z,59.16
2022-09-24T16:00:33.256Z,60.27
2022-09-24T16:05:34.864Z,60.52
2022-09-24T16:10:36.739Z,60.97
2022-09-24T16:15:38.795Z,61.45
2022-09-24T16:20:40.853Z,61.94
2022-09-24T16:25:49.542Z,62.34
2022-09-24T16:30:51.265Z,62.82
2022-09-24T16:35:52.897Z,63.57
2022-09-24T16:41:00.715Z,63.72
2022-09-24T16:46:08.220Z,64.41
2022-09-24T16:51:11.594Z,64.30
2022-09-24T16:56:15.290Z,64.82
2022-09-24T17:01:19.268Z,65.11
2022-09-24T17:06:23.422Z,65.50
2022-09-24T17:11:24.959Z,65.54
2022-09-24T17:16:27.167Z,65.74
2022-09-24T17:21:28.984Z,66.11
2022-09-24T17:26:30.594Z,66.61
2022-09-24T17:31:32.193Z,67.14
2022-09-24T17:36:34.537Z,66.81
2022-09-24T17:41:36.175Z,67.71
2022-09-24T17:46:37.979Z,67.94
2022-09-24T17:51:39.788Z,67.92
2022-09-24T17:56:41.900Z,68.19
2022-09-24T18:01:44.241Z,68.45
2022-09-24T18:06:46.862Z,69.33
2022-09-24T18:11:50.215Z,69.33
2022-09-24T18:16:52.028Z,70.20
2022-09-24T18:21:54.588Z,70.09
2022-09-24T18:26:56.428Z,69.69
2022-09-24T18:31:57.957Z,70.42
2022-09-24T18:36:59.452Z,70.22
2022-09-24T18:42:01.034Z,71.35
2022-09-24T18:47:02.904Z,71.82
2022-09-24T18:52:04.481Z,72.70
2022-09-24T18:57:06.042Z,73.67
2022-09-24T19:02:08.466Z,74.16
2022-09-24T19:07:10.168Z,74.72
2022-09-24T19:12:12.743Z,75.64
2022-09-24T19:17:14.768Z,75.34
2022-09-24T19:22:16.310Z,75.61
2022-09-24T19:27:17.812Z,76.66
2022-09-24T19:32:19.318Z,76.82
2022-09-24T19:37:20.846Z,76.65
2022-09-24T19:42:22.907Z,77.00
2022-09-24T19:47:25.669Z,77.77
2022-09-24T19:52:27.213Z,76.89
2022-09-24T19:57:28.799Z,77.17
2022-09-24T20:02:30.414Z,77.63
2022-09-24T20:07:32.161Z,78.51
2022-09-24T20:12:34.764Z,79.31
2022-09-24T20:17:36.312Z,79.08
2022-09-24T20:22:37.975Z,78.50
2022-09-24T20:27:51.617Z,78.75
2022-09-24T20:32:53.101Z,79.21
2022-09-24T20:37:54.762Z,77.81
2022-09-24T20:42:56.300Z,77.62
2022-09-24T20:47:57.879Z,77.43
2022-09-24T20:52:59.431Z,78.78
2022-09-24T20:58:00.941Z,78.86
2022-09-24T21:03:15.458Z,79.30
2022-09-24T21:08:21.709Z,78.72
2022-09-24T21:13:24.522Z,79.14
2022-09-24T21:18:31.057Z,81.08
2022-09-24T21:23:40.077Z,81.86
2022-09-24T21:28:43.494Z,81.69
2022-09-24T21:33:46.911Z,82.33
2022-09-24T21:38:55.870Z,83.65
2022-09-24T21:43:57.848Z,84.48
2022-09-24T21:49:00.553Z,85.04
2022-09-24T21:54:04.159Z,85.41
2022-09-24T21:59:38.111Z,84.96
2022-09-24T22:04:39.699Z,84.79
2022-09-24T22:09:41.243Z,84.00
2022-09-24T22:14:44.842Z,84.19
2022-09-24T22:19:47.218Z,85.30
2022-09-24T22:24:48.806Z,83.43
2022-09-24T22:29:50.351Z,86.03
2022-09-24T22:35:10.597Z,86.08
2022-09-24T22:40:12.401Z,83.57
2022-09-24T22:45:14.017Z,84.98
2022-09-24T22:50:15.535Z,87.03
2022-09-24T22:55:17.067Z,86.40
2022-09-24T23:00:18.907Z,85.41
2022-09-24T23:05:20.487Z,85.89
2022-09-24T23:10:22.618Z,85.75
2022-09-24T23:15:25.462Z,85.27
2022-09-24T23:20:27.328Z,84.92
2022-09-24T23:25:28.881Z,86.42
2022-09-24T23:30:31.406Z,85.71
2022-09-24T23:35:32.932Z,85.01
2022-09-24T23:40:34.554Z,85.91
2022-09-24T23:45:36.173Z,85.49
2022-09-24T23:50:38.095Z,84.87
2022-09-24T23:55:42.601Z,87.57
